Terminal Aerodrome Forecast
Issued by NWS

Home | Current Version | Previous Version | Text Only | Print | Product List | Glossary Off
Versions: 1 2 3 4 5 6 7 8 9 10 11 12 13 14 15 16 17 18 19 20 21 22 23 24 25 26
000 FTUS41 KBOX 191125 TAFHYA TAF KHYA 191125Z 1912/2012 03012G22KT P6SM SCT070 FM191500 04012G21KT P6SM FEW120 FM192100 06010KT P6SM FEW250 FM200100 11006KT P6SM SKC FM200800 00000KT P6SM FEW250=

USA.gov is the U.S. government's official web portal to all federal, state and local government web resources and services.